Star Vega — 3EVB3 — position and weather

sailwx.info

Track history (hours):
 
Tides and Currents Weather Stations Pressure Air Temp Water Temp Dewpoint Dewpoint Depression Visibility Wind Speed Wind Dir Waves Ship Positions

Star Vega

Last reported at 2014-Aug-17 02:32 UTC. Time now 2014-Aug-23 01:36 UTC.
Position N 40°57' E 028°58'.

Length 189 m; draft 6 m.

Type: Cargo ship. MMSI: 354143000.

Date/timePositionNaut miles runAvg speedWind from/ knotsBaromVisibWave heightAir tempDewpointWater temp
2014-Aug-17 02:32N 40°57' E 028°58'9 8.5
2014-Aug-17 01:31N 40°50' E 028°52'3 2.9
2014-Aug-17 00:29N 40°47' E 028°50'1 1.1
2014-Aug-16 23:33N 40°48' E 028°51'1 0.5
2014-Aug-16 22:25N 40°48' E 028°51'2 2.3
2014-Aug-16 21:33N 40°46' E 028°51'1 0.8
2014-Aug-16 20:33N 40°46' E 028°52'1 0.8
2014-Aug-16 19:32N 40°47' E 028°53'1 0.7
2014-Aug-16 18:32N 40°47' E 028°54'1 1.1
2014-Aug-16 17:21N 40°48' E 028°55'1 1.0
2014-Aug-16 16:33N 40°48' E 028°56'1 1.2
2014-Aug-16 15:33N 40°47' E 028°55'1 1.3
2014-Aug-16 14:33N 40°48' E 028°55'2 1.5
2014-Aug-16 13:33N 40°50' E 028°55'3 3.4
2014-Aug-16 12:32N 40°50' E 028°50'20610.7
2014-Aug-15 17:13N 38°49' E 025°13'3312.1
2014-Aug-15 14:31N 38°20' E 024°53'3012.1
2014-Aug-15 12:05N 37°54' E 024°35'713.0
2014-Aug-15 11:33N 37°51' E 024°27'1612.7
2014-Aug-15 10:15N 37°40' E 024°12'811.4
2014-Aug-15 09:33N 37°36' E 024°03'1111.4
2014-Aug-15 08:33N 37°38' E 023°49'1110.9
2014-Aug-15 07:33N 37°46' E 023°39'7 7.5
2014-Aug-15 06:33N 37°50' E 023°31'1 0.7
2014-Aug-15 05:31N 37°51' E 023°30'0 0.1
2014-Aug-15 04:31N 37°51' E 023°30'0 0.0
2014-Aug-15 03:31N 37°51' E 023°30'0 0.1
2014-Aug-15 02:31N 37°51' E 023°30'0 0.0
2014-Aug-15 01:31N 37°51' E 023°30'0 0.0
2014-Aug-14 14:33N 37°51' E 023°30'0 0.0
2014-Aug-14 13:33N 37°51' E 023°30'0 0.1
2014-Aug-14 12:33N 37°51' E 023°30'0 0.1
2014-Aug-14 11:33N 37°51' E 023°30'0 0.0
2014-Aug-14 10:33N 37°51' E 023°30'0 0.0
2014-Aug-14 09:33N 37°51' E 023°30'0 0.1
2014-Aug-14 08:33N 37°51' E 023°30'0 0.0
2014-Aug-14 07:33N 37°51' E 023°30'0 0.1
2014-Aug-14 06:33N 37°50' E 023°30'0 0.0
2014-Aug-14 05:33N 37°50' E 023°30'0 0.0
2014-Aug-14 04:33N 37°50' E 023°30'0 0.0
2014-Aug-14 03:33N 37°50' E 023°30'0 0.1
2014-Aug-14 02:33N 37°51' E 023°30'0 0.1
2014-Aug-14 01:33N 37°51' E 023°30'0 0.1
2014-Aug-14 00:33N 37°51' E 023°30'0 0.5
2014-Aug-13 23:33N 37°51' E 023°31'5 5.0
2014-Aug-13 22:33N 37°51' E 023°37'8 8.2
2014-Aug-13 21:33N 37°44' E 023°43'9 9.2
2014-Aug-13 20:33N 37°37' E 023°50'31 9.7
2014-Aug-13 17:24N 37°13' E 024°14'2010.9
2014-Aug-13 15:33N 36°58' E 024°31'1111.2
2014-Aug-13 14:33N 36°51' E 024°42'1110.5
2014-Aug-13 13:33N 36°41' E 024°45'1110.7
2014-Aug-13 12:33N 36°32' E 024°54'1111.4
2014-Aug-13 11:33N 36°26' E 025°05'1211.6
2014-Aug-13 10:33N 36°19' E 025°17'1211.9
2014-Aug-13 09:33N 36°10' E 025°27'1212.1
2014-Aug-13 08:33N 36°02' E 025°38'27010.6
2014-Aug-12 07:05N 32°24' E 028°51'  
2014-Aug-07 16:32N 31°08' E 029°48'  
Track history (hours):
 
Tides and Currents Weather Stations Pressure Air Temp Water Temp Dewpoint Dewpoint Depression Visibility Wind Speed Wind Dir Waves Ship Positions

Star Vega

Last reported at 2014-Aug-17 02:32 UTC. Time now 2014-Aug-23 01:36 UTC.
Position N 40°57' E 028°58'.

Length 189 m; draft 6 m.

Type: Cargo ship. MMSI: 354143000.

Date/timePositionNaut miles runAvg speedWind from/ knotsBaromVisibWave heightAir tempDewpointWater temp
2014-Aug-17 02:32N 40°57' E 028°58'9 8.5
2014-Aug-17 01:31N 40°50' E 028°52'3 2.9
2014-Aug-17 00:29N 40°47' E 028°50'1 1.1
2014-Aug-16 23:33N 40°48' E 028°51'1 0.5
2014-Aug-16 22:25N 40°48' E 028°51'2 2.3
2014-Aug-16 21:33N 40°46' E 028°51'1 0.8
2014-Aug-16 20:33N 40°46' E 028°52'1 0.8
2014-Aug-16 19:32N 40°47' E 028°53'1 0.7
2014-Aug-16 18:32N 40°47' E 028°54'1 1.1
2014-Aug-16 17:21N 40°48' E 028°55'1 1.0
2014-Aug-16 16:33N 40°48' E 028°56'1 1.2
2014-Aug-16 15:33N 40°47' E 028°55'1 1.3
2014-Aug-16 14:33N 40°48' E 028°55'2 1.5
2014-Aug-16 13:33N 40°50' E 028°55'3 3.4
2014-Aug-16 12:32N 40°50' E 028°50'20610.7
2014-Aug-15 17:13N 38°49' E 025°13'3312.1
2014-Aug-15 14:31N 38°20' E 024°53'3012.1
2014-Aug-15 12:05N 37°54' E 024°35'713.0
2014-Aug-15 11:33N 37°51' E 024°27'1612.7
2014-Aug-15 10:15N 37°40' E 024°12'811.4
2014-Aug-15 09:33N 37°36' E 024°03'1111.4
2014-Aug-15 08:33N 37°38' E 023°49'1110.9
2014-Aug-15 07:33N 37°46' E 023°39'7 7.5
2014-Aug-15 06:33N 37°50' E 023°31'1 0.7
2014-Aug-15 05:31N 37°51' E 023°30'0 0.1
2014-Aug-15 04:31N 37°51' E 023°30'0 0.0
2014-Aug-15 03:31N 37°51' E 023°30'0 0.1
2014-Aug-15 02:31N 37°51' E 023°30'0 0.0
2014-Aug-15 01:31N 37°51' E 023°30'0 0.0
2014-Aug-14 14:33N 37°51' E 023°30'0 0.0
2014-Aug-14 13:33N 37°51' E 023°30'0 0.1
2014-Aug-14 12:33N 37°51' E 023°30'0 0.1
2014-Aug-14 11:33N 37°51' E 023°30'0 0.0
2014-Aug-14 10:33N 37°51' E 023°30'0 0.0
2014-Aug-14 09:33N 37°51' E 023°30'0 0.1
2014-Aug-14 08:33N 37°51' E 023°30'0 0.0
2014-Aug-14 07:33N 37°51' E 023°30'0 0.1
2014-Aug-14 06:33N 37°50' E 023°30'0 0.0
2014-Aug-14 05:33N 37°50' E 023°30'0 0.0
2014-Aug-14 04:33N 37°50' E 023°30'0 0.0
2014-Aug-14 03:33N 37°50' E 023°30'0 0.1
2014-Aug-14 02:33N 37°51' E 023°30'0 0.1
2014-Aug-14 01:33N 37°51' E 023°30'0 0.1
2014-Aug-14 00:33N 37°51' E 023°30'0 0.5
2014-Aug-13 23:33N 37°51' E 023°31'5 5.0
2014-Aug-13 22:33N 37°51' E 023°37'8 8.2
2014-Aug-13 21:33N 37°44' E 023°43'9 9.2
2014-Aug-13 20:33N 37°37' E 023°50'31 9.7
2014-Aug-13 17:24N 37°13' E 024°14'2010.9
2014-Aug-13 15:33N 36°58' E 024°31'1111.2
2014-Aug-13 14:33N 36°51' E 024°42'1110.5
2014-Aug-13 13:33N 36°41' E 024°45'1110.7
2014-Aug-13 12:33N 36°32' E 024°54'1111.4
2014-Aug-13 11:33N 36°26' E 025°05'1211.6
2014-Aug-13 10:33N 36°19' E 025°17'1211.9
2014-Aug-13 09:33N 36°10' E 025°27'1212.1
2014-Aug-13 08:33N 36°02' E 025°38'27010.6
2014-Aug-12 07:05N 32°24' E 028°51'  
2014-Aug-07 16:32N 31°08' E 029°48'  

Dump ship's entire track history